sensor_id;sensor_type;location;lat;lon;timestamp;P1;durP1;ratioP1;P2;durP2;ratioP2
10847;SDS011;5477;48.806;9.154;2023-07-24T00:00:46;10.33;;;7.40;;
10847;SDS011;5477;48.806;9.154;2023-07-24T00:03:14;9.10;;;6.97;;
10847;SDS011;5477;48.806;9.154;2023-07-24T00:05:42;11.30;;;7.70;;
10847;SDS011;5477;48.806;9.154;2023-07-24T00:08:10;13.97;;;7.77;;
10847;SDS011;5477;48.806;9.154;2023-07-24T00:10:38;11.63;;;7.70;;
10847;SDS011;5477;48.806;9.154;2023-07-24T00:13:08;10.37;;;7.97;;
10847;SDS011;5477;48.806;9.154;2023-07-24T00:15:38;11.13;;;7.47;;
10847;SDS011;5477;48.806;9.154;2023-07-24T00:18:06;11.00;;;6.80;;
10847;SDS011;5477;48.806;9.154;2023-07-24T00:20:34;13.17;;;7.80;;
10847;SDS011;5477;48.806;9.154;2023-07-24T00:23:02;11.23;;;7.40;;
10847;SDS011;5477;48.806;9.154;2023-07-24T00:25:30;11.30;;;7.43;;
10847;SDS011;5477;48.806;9.154;2023-07-24T00:27:58;10.40;;;7.30;;
10847;SDS011;5477;48.806;9.154;2023-07-24T00:30:27;11.37;;;7.93;;
10847;SDS011;5477;48.806;9.154;2023-07-24T00:32:55;10.33;;;7.50;;
10847;SDS011;5477;48.806;9.154;2023-07-24T00:37:52;11.83;;;7.33;;
10847;SDS011;5477;48.806;9.154;2023-07-24T00:40:20;12.10;;;7.87;;
10847;SDS011;5477;48.806;9.154;2023-07-24T00:42:48;11.23;;;7.60;;
10847;SDS011;5477;48.806;9.154;2023-07-24T00:45:16;10.83;;;7.77;;
10847;SDS011;5477;48.806;9.154;2023-07-24T00:47:46;10.63;;;7.83;;
10847;SDS011;5477;48.806;9.154;2023-07-24T00:50:14;9.73;;;7.33;;
10847;SDS011;5477;48.806;9.154;2023-07-24T00:52:42;14.37;;;8.17;;
10847;SDS011;5477;48.806;9.154;2023-07-24T00:55:10;12.07;;;8.20;;
10847;SDS011;5477;48.806;9.154;2023-07-24T00:57:40;12.70;;;7.47;;
10847;SDS011;5477;48.806;9.154;2023-07-24T01:00:09;10.57;;;7.47;;
10847;SDS011;5477;48.806;9.154;2023-07-24T01:02:38;11.73;;;7.23;;
10847;SDS011;5477;48.806;9.154;2023-07-24T01:05:11;11.07;;;7.67;;
10847;SDS011;5477;48.806;9.154;2023-07-24T01:07:41;11.90;;;7.63;;
10847;SDS011;5477;48.806;9.154;2023-07-24T01:10:09;11.53;;;8.10;;
10847;SDS011;5477;48.806;9.154;2023-07-24T01:12:39;11.33;;;7.40;;
10847;SDS011;5477;48.806;9.154;2023-07-24T01:15:12;11.67;;;8.30;;
10847;SDS011;5477;48.806;9.154;2023-07-24T01:17:47;12.70;;;8.17;;
10847;SDS011;5477;48.806;9.154;2023-07-24T01:20:19;11.90;;;7.70;;
10847;SDS011;5477;48.806;9.154;2023-07-24T01:22:51;11.70;;;8.17;;
10847;SDS011;5477;48.806;9.154;2023-07-24T01:25:31;10.97;;;8.13;;
10847;SDS011;5477;48.806;9.154;2023-07-24T01:28:07;11.50;;;8.10;;
10847;SDS011;5477;48.806;9.154;2023-07-24T01:30:35;9.73;;;7.20;;
10847;SDS011;5477;48.806;9.154;2023-07-24T01:33:03;11.87;;;7.97;;
10847;SDS011;5477;48.806;9.154;2023-07-24T01:35:31;11.47;;;8.23;;
10847;SDS011;5477;48.806;9.154;2023-07-24T01:38:00;11.10;;;7.83;;
10847;SDS011;5477;48.806;9.154;2023-07-24T01:40:30;9.77;;;7.13;;
10847;SDS011;5477;48.806;9.154;2023-07-24T01:42:59;10.27;;;7.80;;
10847;SDS011;5477;48.806;9.154;2023-07-24T01:45:28;10.83;;;8.20;;
10847;SDS011;5477;48.806;9.154;2023-07-24T01:47:56;11.90;;;8.00;;
10847;SDS011;5477;48.806;9.154;2023-07-24T01:50:26;9.87;;;7.30;;
10847;SDS011;5477;48.806;9.154;2023-07-24T01:52:54;10.40;;;7.50;;
10847;SDS011;5477;48.806;9.154;2023-07-24T01:55:22;10.80;;;7.77;;
10847;SDS011;5477;48.806;9.154;2023-07-24T01:57:50;11.53;;;7.53;;
10847;SDS011;5477;48.806;9.154;2023-07-24T02:00:18;11.50;;;7.60;;
10847;SDS011;5477;48.806;9.154;2023-07-24T02:02:57;9.40;;;7.63;;
10847;SDS011;5477;48.806;9.154;2023-07-24T02:05:25;12.93;;;8.43;;
10847;SDS011;5477;48.806;9.154;2023-07-24T02:07:53;9.43;;;7.23;;
10847;SDS011;5477;48.806;9.154;2023-07-24T02:10:21;10.40;;;7.40;;
10847;SDS011;5477;48.806;9.154;2023-07-24T02:12:50;11.13;;;7.33;;
10847;SDS011;5477;48.806;9.154;2023-07-24T02:15:17;9.67;;;7.40;;
10847;SDS011;5477;48.806;9.154;2023-07-24T02:17:46;10.10;;;7.73;;
10847;SDS011;5477;48.806;9.154;2023-07-24T02:20:15;11.03;;;8.40;;
10847;SDS011;5477;48.806;9.154;2023-07-24T02:22:43;12.10;;;8.17;;
10847;SDS011;5477;48.806;9.154;2023-07-24T02:25:11;9.63;;;7.80;;
10847;SDS011;5477;48.806;9.154;2023-07-24T02:27:39;9.43;;;6.97;;
10847;SDS011;5477;48.806;9.154;2023-07-24T02:30:07;12.27;;;8.37;;
10847;SDS011;5477;48.806;9.154;2023-07-24T02:32:36;12.37;;;8.03;;
10847;SDS011;5477;48.806;9.154;2023-07-24T02:35:04;10.43;;;7.87;;
10847;SDS011;5477;48.806;9.154;2023-07-24T02:37:34;11.07;;;7.37;;
10847;SDS011;5477;48.806;9.154;2023-07-24T02:40:02;11.23;;;7.77;;
10847;SDS011;5477;48.806;9.154;2023-07-24T02:42:31;9.37;;;7.33;;
10847;SDS011;5477;48.806;9.154;2023-07-24T02:44:59;12.33;;;8.03;;
10847;SDS011;5477;48.806;9.154;2023-07-24T02:47:28;9.33;;;7.03;;
10847;SDS011;5477;48.806;9.154;2023-07-24T02:49:56;10.50;;;7.40;;
10847;SDS011;5477;48.806;9.154;2023-07-24T02:52:24;11.67;;;7.93;;
10847;SDS011;5477;48.806;9.154;2023-07-24T02:54:53;12.43;;;7.87;;
10847;SDS011;5477;48.806;9.154;2023-07-24T02:57:21;12.10;;;7.97;;
10847;SDS011;5477;48.806;9.154;2023-07-24T02:59:49;9.63;;;7.43;;
10847;SDS011;5477;48.806;9.154;2023-07-24T03:02:17;9.60;;;7.07;;
10847;SDS011;5477;48.806;9.154;2023-07-24T03:04:45;12.23;;;8.07;;
10847;SDS011;5477;48.806;9.154;2023-07-24T03:07:13;10.23;;;7.63;;
10847;SDS011;5477;48.806;9.154;2023-07-24T03:09:41;9.80;;;7.53;;
10847;SDS011;5477;48.806;9.154;2023-07-24T03:12:11;12.07;;;7.70;;
10847;SDS011;5477;48.806;9.154;2023-07-24T03:14:38;12.30;;;8.13;;
10847;SDS011;5477;48.806;9.154;2023-07-24T03:17:06;10.63;;;7.43;;
10847;SDS011;5477;48.806;9.154;2023-07-24T03:19:34;10.13;;;7.63;;
10847;SDS011;5477;48.806;9.154;2023-07-24T03:22:02;9.83;;;7.37;;
10847;SDS011;5477;48.806;9.154;2023-07-24T03:24:31;11.77;;;7.90;;
10847;SDS011;5477;48.806;9.154;2023-07-24T03:26:59;10.20;;;7.90;;
10847;SDS011;5477;48.806;9.154;2023-07-24T03:29:28;10.10;;;7.57;;
10847;SDS011;5477;48.806;9.154;2023-07-24T03:31:56;9.60;;;7.00;;
10847;SDS011;5477;48.806;9.154;2023-07-24T03:34:24;10.47;;;7.53;;
10847;SDS011;5477;48.806;9.154;2023-07-24T03:36:52;12.60;;;8.30;;
10847;SDS011;5477;48.806;9.154;2023-07-24T03:39:20;11.10;;;8.13;;
10847;SDS011;5477;48.806;9.154;2023-07-24T03:41:48;10.87;;;8.17;;
10847;SDS011;5477;48.806;9.154;2023-07-24T03:44:16;11.67;;;7.37;;
10847;SDS011;5477;48.806;9.154;2023-07-24T03:46:55;10.50;;;7.53;;
10847;SDS011;5477;48.806;9.154;2023-07-24T03:49:23;10.77;;;7.63;;
10847;SDS011;5477;48.806;9.154;2023-07-24T03:51:50;13.20;;;8.33;;
10847;SDS011;5477;48.806;9.154;2023-07-24T03:54:18;10.60;;;7.57;;
10847;SDS011;5477;48.806;9.154;2023-07-24T03:56:46;10.80;;;7.67;;
10847;SDS011;5477;48.806;9.154;2023-07-24T03:59:14;12.50;;;8.10;;
10847;SDS011;5477;48.806;9.154;2023-07-24T04:01:42;12.40;;;7.80;;
10847;SDS011;5477;48.806;9.154;2023-07-24T04:04:12;10.23;;;7.30;;
10847;SDS011;5477;48.806;9.154;2023-07-24T04:06:40;12.67;;;8.67;;
10847;SDS011;5477;48.806;9.154;2023-07-24T04:09:08;10.37;;;7.70;;
10847;SDS011;5477;48.806;9.154;2023-07-24T04:11:37;11.37;;;7.93;;
10847;SDS011;5477;48.806;9.154;2023-07-24T04:14:05;9.60;;;7.53;;
10847;SDS011;5477;48.806;9.154;2023-07-24T04:16:34;12.43;;;7.27;;
10847;SDS011;5477;48.806;9.154;2023-07-24T04:19:02;11.57;;;7.57;;
10847;SDS011;5477;48.806;9.154;2023-07-24T04:21:32;10.17;;;7.27;;
10847;SDS011;5477;48.806;9.154;2023-07-24T04:24:00;10.97;;;7.27;;
10847;SDS011;5477;48.806;9.154;2023-07-24T04:26:28;11.80;;;7.53;;
10847;SDS011;5477;48.806;9.154;2023-07-24T04:28:56;10.70;;;7.37;;
10847;SDS011;5477;48.806;9.154;2023-07-24T04:31:24;9.77;;;6.83;;
10847;SDS011;5477;48.806;9.154;2023-07-24T04:33:52;9.20;;;6.93;;
10847;SDS011;5477;48.806;9.154;2023-07-24T04:36:20;10.13;;;6.80;;
10847;SDS011;5477;48.806;9.154;2023-07-24T04:38:49;11.90;;;7.80;;
10847;SDS011;5477;48.806;9.154;2023-07-24T04:41:17;12.10;;;7.20;;
10847;SDS011;5477;48.806;9.154;2023-07-24T04:43:45;10.50;;;7.13;;
10847;SDS011;5477;48.806;9.154;2023-07-24T04:46:13;10.93;;;7.33;;
10847;SDS011;5477;48.806;9.154;2023-07-24T04:48:41;10.57;;;7.27;;
10847;SDS011;5477;48.806;9.154;2023-07-24T04:51:09;10.07;;;7.53;;
10847;SDS011;5477;48.806;9.154;2023-07-24T04:53:37;8.80;;;7.53;;
10847;SDS011;5477;48.806;9.154;2023-07-24T04:56:06;9.70;;;7.27;;
10847;SDS011;5477;48.806;9.154;2023-07-24T04:58:34;10.03;;;7.07;;
10847;SDS011;5477;48.806;9.154;2023-07-24T05:01:02;9.77;;;7.30;;
10847;SDS011;5477;48.806;9.154;2023-07-24T05:03:31;10.80;;;7.47;;
10847;SDS011;5477;48.806;9.154;2023-07-24T05:05:59;8.70;;;6.70;;
10847;SDS011;5477;48.806;9.154;2023-07-24T05:08:27;11.07;;;7.57;;
10847;SDS011;5477;48.806;9.154;2023-07-24T05:10:55;9.80;;;6.93;;
10847;SDS011;5477;48.806;9.154;2023-07-24T05:13:26;10.00;;;7.63;;
10847;SDS011;5477;48.806;9.154;2023-07-24T05:15:54;13.17;;;7.73;;
10847;SDS011;5477;48.806;9.154;2023-07-24T05:18:22;16.70;;;7.47;;
10847;SDS011;5477;48.806;9.154;2023-07-24T05:20:50;9.37;;;7.40;;
10847;SDS011;5477;48.806;9.154;2023-07-24T05:23:18;11.57;;;6.97;;
10847;SDS011;5477;48.806;9.154;2023-07-24T05:25:46;10.37;;;7.60;;
10847;SDS011;5477;48.806;9.154;2023-07-24T05:28:14;8.70;;;7.33;;
10847;SDS011;5477;48.806;9.154;2023-07-24T05:30:43;9.67;;;6.73;;
10847;SDS011;5477;48.806;9.154;2023-07-24T05:33:11;10.17;;;8.10;;
10847;SDS011;5477;48.806;9.154;2023-07-24T05:35:39;9.90;;;7.23;;
10847;SDS011;5477;48.806;9.154;2023-07-24T05:38:07;9.37;;;7.27;;
10847;SDS011;5477;48.806;9.154;2023-07-24T05:40:35;9.73;;;7.10;;
10847;SDS011;5477;48.806;9.154;2023-07-24T05:43:03;11.67;;;7.93;;
10847;SDS011;5477;48.806;9.154;2023-07-24T05:45:31;10.70;;;6.93;;
10847;SDS011;5477;48.806;9.154;2023-07-24T05:48:00;9.83;;;7.33;;
10847;SDS011;5477;48.806;9.154;2023-07-24T05:50:28;10.03;;;6.97;;
10847;SDS011;5477;48.806;9.154;2023-07-24T05:52:56;12.10;;;7.70;;
10847;SDS011;5477;48.806;9.154;2023-07-24T05:55:24;10.77;;;7.73;;
10847;SDS011;5477;48.806;9.154;2023-07-24T05:57:52;11.90;;;7.07;;
10847;SDS011;5477;48.806;9.154;2023-07-24T06:00:20;14.10;;;7.37;;
10847;SDS011;5477;48.806;9.154;2023-07-24T06:02:48;10.33;;;7.27;;
10847;SDS011;5477;48.806;9.154;2023-07-24T06:05:17;10.20;;;7.57;;
10847;SDS011;5477;48.806;9.154;2023-07-24T06:07:46;11.20;;;7.80;;
10847;SDS011;5477;48.806;9.154;2023-07-24T06:10:15;10.07;;;7.47;;
10847;SDS011;5477;48.806;9.154;2023-07-24T06:12:42;9.93;;;7.27;;
10847;SDS011;5477;48.806;9.154;2023-07-24T06:15:11;8.63;;;6.77;;
10847;SDS011;5477;48.806;9.154;2023-07-24T06:17:38;9.57;;;7.53;;
10847;SDS011;5477;48.806;9.154;2023-07-24T06:20:07;10.37;;;7.27;;
10847;SDS011;5477;48.806;9.154;2023-07-24T06:22:37;10.10;;;7.33;;
10847;SDS011;5477;48.806;9.154;2023-07-24T06:25:05;9.37;;;7.10;;
10847;SDS011;5477;48.806;9.154;2023-07-24T06:27:34;9.73;;;7.20;;
10847;SDS011;5477;48.806;9.154;2023-07-24T06:30:02;9.47;;;6.50;;
10847;SDS011;5477;48.806;9.154;2023-07-24T06:32:41;9.57;;;7.10;;
10847;SDS011;5477;48.806;9.154;2023-07-24T06:35:10;12.53;;;7.73;;
10847;SDS011;5477;48.806;9.154;2023-07-24T06:37:40;9.67;;;7.17;;
10847;SDS011;5477;48.806;9.154;2023-07-24T06:40:08;10.73;;;7.70;;
10847;SDS011;5477;48.806;9.154;2023-07-24T06:42:37;10.93;;;7.07;;
10847;SDS011;5477;48.806;9.154;2023-07-24T06:45:06;9.93;;;7.33;;
10847;SDS011;5477;48.806;9.154;2023-07-24T06:47:35;11.43;;;7.87;;
10847;SDS011;5477;48.806;9.154;2023-07-24T06:50:04;10.87;;;7.53;;
10847;SDS011;5477;48.806;9.154;2023-07-24T06:52:33;10.87;;;7.37;;
10847;SDS011;5477;48.806;9.154;2023-07-24T06:55:02;11.60;;;7.70;;
10847;SDS011;5477;48.806;9.154;2023-07-24T06:57:31;11.80;;;7.60;;
10847;SDS011;5477;48.806;9.154;2023-07-24T06:59:58;11.27;;;7.50;;
10847;SDS011;5477;48.806;9.154;2023-07-24T07:02:26;8.57;;;7.03;;
10847;SDS011;5477;48.806;9.154;2023-07-24T07:04:55;9.97;;;7.10;;
10847;SDS011;5477;48.806;9.154;2023-07-24T07:07:23;10.70;;;7.53;;
10847;SDS011;5477;48.806;9.154;2023-07-24T07:09:51;11.30;;;7.47;;
10847;SDS011;5477;48.806;9.154;2023-07-24T07:12:20;12.80;;;7.73;;
10847;SDS011;5477;48.806;9.154;2023-07-24T07:14:48;12.67;;;8.20;;
10847;SDS011;5477;48.806;9.154;2023-07-24T07:17:16;11.07;;;7.80;;
10847;SDS011;5477;48.806;9.154;2023-07-24T07:19:44;9.90;;;7.23;;
10847;SDS011;5477;48.806;9.154;2023-07-24T07:22:12;9.37;;;7.60;;
10847;SDS011;5477;48.806;9.154;2023-07-24T07:24:40;10.40;;;7.47;;
10847;SDS011;5477;48.806;9.154;2023-07-24T07:27:09;10.03;;;7.07;;
10847;SDS011;5477;48.806;9.154;2023-07-24T07:29:39;12.23;;;7.43;;
10847;SDS011;5477;48.806;9.154;2023-07-24T07:32:07;11.50;;;7.83;;
10847;SDS011;5477;48.806;9.154;2023-07-24T07:34:35;13.47;;;7.70;;
10847;SDS011;5477;48.806;9.154;2023-07-24T07:37:05;10.00;;;7.10;;
10847;SDS011;5477;48.806;9.154;2023-07-24T07:39:33;11.77;;;7.27;;
10847;SDS011;5477;48.806;9.154;2023-07-24T07:42:01;13.77;;;7.53;;
10847;SDS011;5477;48.806;9.154;2023-07-24T07:44:44;11.87;;;7.57;;
10847;SDS011;5477;48.806;9.154;2023-07-24T07:47:12;9.93;;;7.33;;
10847;SDS011;5477;48.806;9.154;2023-07-24T07:49:40;11.17;;;7.17;;
10847;SDS011;5477;48.806;9.154;2023-07-24T07:52:09;10.33;;;7.63;;
10847;SDS011;5477;48.806;9.154;2023-07-24T07:54:37;12.40;;;7.53;;
10847;SDS011;5477;48.806;9.154;2023-07-24T07:57:05;10.47;;;7.33;;
10847;SDS011;5477;48.806;9.154;2023-07-24T07:59:33;11.90;;;7.63;;
10847;SDS011;5477;48.806;9.154;2023-07-24T08:02:03;9.17;;;7.53;;
10847;SDS011;5477;48.806;9.154;2023-07-24T08:04:31;11.00;;;7.77;;
10847;SDS011;5477;48.806;9.154;2023-07-24T08:06:59;10.87;;;7.27;;
10847;SDS011;5477;48.806;9.154;2023-07-24T08:09:27;13.20;;;7.40;;
10847;SDS011;5477;48.806;9.154;2023-07-24T08:11:55;9.47;;;7.27;;
10847;SDS011;5477;48.806;9.154;2023-07-24T08:14:23;9.80;;;7.50;;
10847;SDS011;5477;48.806;9.154;2023-07-24T08:16:52;11.73;;;8.07;;
10847;SDS011;5477;48.806;9.154;2023-07-24T08:19:21;10.60;;;7.33;;
10847;SDS011;5477;48.806;9.154;2023-07-24T08:21:49;11.97;;;8.50;;
10847;SDS011;5477;48.806;9.154;2023-07-24T08:24:17;12.97;;;7.87;;
10847;SDS011;5477;48.806;9.154;2023-07-24T08:26:46;9.93;;;7.50;;
10847;SDS011;5477;48.806;9.154;2023-07-24T08:29:13;13.40;;;8.33;;
10847;SDS011;5477;48.806;9.154;2023-07-24T08:31:41;12.57;;;8.07;;
10847;SDS011;5477;48.806;9.154;2023-07-24T08:34:10;11.80;;;8.37;;
10847;SDS011;5477;48.806;9.154;2023-07-24T08:36:39;10.73;;;7.73;;
10847;SDS011;5477;48.806;9.154;2023-07-24T08:39:07;13.83;;;8.67;;
10847;SDS011;5477;48.806;9.154;2023-07-24T08:41:36;11.70;;;9.00;;
10847;SDS011;5477;48.806;9.154;2023-07-24T08:44:04;12.87;;;9.10;;
10847;SDS011;5477;48.806;9.154;2023-07-24T08:46:35;12.73;;;8.47;;
10847;SDS011;5477;48.806;9.154;2023-07-24T08:49:05;15.47;;;10.10;;
10847;SDS011;5477;48.806;9.154;2023-07-24T08:51:33;11.90;;;9.20;;
10847;SDS011;5477;48.806;9.154;2023-07-24T08:54:04;15.47;;;9.53;;
10847;SDS011;5477;48.806;9.154;2023-07-24T08:56:32;15.73;;;9.77;;
10847;SDS011;5477;48.806;9.154;2023-07-24T08:59:00;12.50;;;9.10;;
10847;SDS011;5477;48.806;9.154;2023-07-24T09:01:28;12.07;;;9.17;;
10847;SDS011;5477;48.806;9.154;2023-07-24T09:03:56;12.43;;;8.63;;
10847;SDS011;5477;48.806;9.154;2023-07-24T09:06:25;14.20;;;8.43;;
10847;SDS011;5477;48.806;9.154;2023-07-24T09:08:54;14.53;;;8.47;;
10847;SDS011;5477;48.806;9.154;2023-07-24T09:11:23;11.23;;;7.77;;
10847;SDS011;5477;48.806;9.154;2023-07-24T09:13:51;10.60;;;7.03;;
10847;SDS011;5477;48.806;9.154;2023-07-24T09:16:21;8.83;;;7.00;;
10847;SDS011;5477;48.806;9.154;2023-07-24T09:18:51;9.93;;;7.00;;
10847;SDS011;5477;48.806;9.154;2023-07-24T09:21:26;9.17;;;6.77;;
10847;SDS011;5477;48.806;9.154;2023-07-24T09:23:55;10.00;;;6.77;;
10847;SDS011;5477;48.806;9.154;2023-07-24T09:26:26;10.57;;;7.27;;
10847;SDS011;5477;48.806;9.154;2023-07-24T09:28:54;9.27;;;6.90;;
10847;SDS011;5477;48.806;9.154;2023-07-24T09:31:32;10.37;;;6.80;;
10847;SDS011;5477;48.806;9.154;2023-07-24T09:34:01;10.53;;;6.53;;
10847;SDS011;5477;48.806;9.154;2023-07-24T09:36:36;8.50;;;6.47;;
10847;SDS011;5477;48.806;9.154;2023-07-24T09:39:05;8.70;;;6.73;;
10847;SDS011;5477;48.806;9.154;2023-07-24T09:41:38;9.80;;;6.80;;
10847;SDS011;5477;48.806;9.154;2023-07-24T09:44:07;9.00;;;7.00;;
10847;SDS011;5477;48.806;9.154;2023-07-24T09:46:35;7.73;;;6.17;;
10847;SDS011;5477;48.806;9.154;2023-07-24T09:49:12;7.63;;;6.20;;
10847;SDS011;5477;48.806;9.154;2023-07-24T09:51:41;9.90;;;6.20;;
10847;SDS011;5477;48.806;9.154;2023-07-24T09:54:15;8.33;;;6.50;;
10847;SDS011;5477;48.806;9.154;2023-07-24T09:56:50;9.83;;;6.87;;
10847;SDS011;5477;48.806;9.154;2023-07-24T09:59:32;8.50;;;6.50;;
10847;SDS011;5477;48.806;9.154;2023-07-24T10:02:01;6.87;;;6.03;;
10847;SDS011;5477;48.806;9.154;2023-07-24T10:04:31;10.47;;;6.70;;
10847;SDS011;5477;48.806;9.154;2023-07-24T10:06:59;9.20;;;5.87;;
10847;SDS011;5477;48.806;9.154;2023-07-24T10:09:28;8.30;;;5.93;;
10847;SDS011;5477;48.806;9.154;2023-07-24T10:11:58;8.67;;;6.37;;
10847;SDS011;5477;48.806;9.154;2023-07-24T10:14:27;8.33;;;5.97;;
10847;SDS011;5477;48.806;9.154;2023-07-24T10:16:56;8.27;;;5.87;;
10847;SDS011;5477;48.806;9.154;2023-07-24T10:19:24;8.30;;;5.53;;
10847;SDS011;5477;48.806;9.154;2023-07-24T10:22:04;9.43;;;6.00;;
10847;SDS011;5477;48.806;9.154;2023-07-24T10:24:32;9.10;;;5.93;;
10847;SDS011;5477;48.806;9.154;2023-07-24T10:27:09;7.93;;;5.77;;
10847;SDS011;5477;48.806;9.154;2023-07-24T10:29:38;9.40;;;5.77;;
10847;SDS011;5477;48.806;9.154;2023-07-24T10:32:16;8.13;;;6.40;;
10847;SDS011;5477;48.806;9.154;2023-07-24T10:34:45;10.40;;;6.30;;
10847;SDS011;5477;48.806;9.154;2023-07-24T10:37:30;8.70;;;6.23;;
10847;SDS011;5477;48.806;9.154;2023-07-24T10:40:00;9.47;;;6.00;;
10847;SDS011;5477;48.806;9.154;2023-07-24T10:42:30;9.07;;;6.00;;
10847;SDS011;5477;48.806;9.154;2023-07-24T10:45:04;9.70;;;6.20;;
10847;SDS011;5477;48.806;9.154;2023-07-24T10:47:32;11.90;;;6.00;;
10847;SDS011;5477;48.806;9.154;2023-07-24T10:50:00;9.77;;;7.07;;
10847;SDS011;5477;48.806;9.154;2023-07-24T10:52:29;9.80;;;6.90;;
10847;SDS011;5477;48.806;9.154;2023-07-24T10:54:59;10.20;;;6.77;;
10847;SDS011;5477;48.806;9.154;2023-07-24T10:57:28;10.13;;;6.53;;
10847;SDS011;5477;48.806;9.154;2023-07-24T10:59:58;9.40;;;6.67;;
10847;SDS011;5477;48.806;9.154;2023-07-24T11:02:27;8.67;;;6.73;;
10847;SDS011;5477;48.806;9.154;2023-07-24T11:04:58;10.27;;;6.63;;
10847;SDS011;5477;48.806;9.154;2023-07-24T11:07:31;11.67;;;6.80;;
10847;SDS011;5477;48.806;9.154;2023-07-24T11:10:00;12.40;;;8.07;;
10847;SDS011;5477;48.806;9.154;2023-07-24T11:12:28;10.37;;;6.97;;
10847;SDS011;5477;48.806;9.154;2023-07-24T11:14:59;15.10;;;8.80;;
10847;SDS011;5477;48.806;9.154;2023-07-24T11:17:34;11.63;;;7.97;;
10847;SDS011;5477;48.806;9.154;2023-07-24T11:20:07;10.40;;;6.97;;
10847;SDS011;5477;48.806;9.154;2023-07-24T11:22:41;11.77;;;7.67;;
10847;SDS011;5477;48.806;9.154;2023-07-24T11:25:11;10.90;;;7.60;;
10847;SDS011;5477;48.806;9.154;2023-07-24T11:27:39;11.53;;;7.47;;
10847;SDS011;5477;48.806;9.154;2023-07-24T11:30:11;11.97;;;7.50;;
10847;SDS011;5477;48.806;9.154;2023-07-24T11:32:40;13.03;;;7.90;;
10847;SDS011;5477;48.806;9.154;2023-07-24T11:35:09;10.37;;;8.07;;
10847;SDS011;5477;48.806;9.154;2023-07-24T11:37:37;9.67;;;6.90;;
10847;SDS011;5477;48.806;9.154;2023-07-24T11:40:06;10.03;;;7.03;;
10847;SDS011;5477;48.806;9.154;2023-07-24T11:42:37;10.03;;;6.93;;
10847;SDS011;5477;48.806;9.154;2023-07-24T11:45:07;9.77;;;6.83;;
10847;SDS011;5477;48.806;9.154;2023-07-24T11:47:45;10.90;;;7.33;;
10847;SDS011;5477;48.806;9.154;2023-07-24T11:50:14;10.37;;;7.43;;
10847;SDS011;5477;48.806;9.154;2023-07-24T11:52:44;8.80;;;5.97;;
10847;SDS011;5477;48.806;9.154;2023-07-24T11:55:13;8.83;;;6.07;;
10847;SDS011;5477;48.806;9.154;2023-07-24T11:57:42;9.73;;;6.53;;
10847;SDS011;5477;48.806;9.154;2023-07-24T12:00:17;9.13;;;6.83;;
10847;SDS011;5477;48.806;9.154;2023-07-24T12:02:48;8.00;;;6.60;;
10847;SDS011;5477;48.806;9.154;2023-07-24T12:05:18;9.90;;;6.83;;
10847;SDS011;5477;48.806;9.154;2023-07-24T12:07:46;9.80;;;6.37;;
10847;SDS011;5477;48.806;9.154;2023-07-24T12:10:24;7.47;;;5.90;;
10847;SDS011;5477;48.806;9.154;2023-07-24T12:12:54;9.17;;;6.50;;
10847;SDS011;5477;48.806;9.154;2023-07-24T12:15:25;7.70;;;6.50;;
10847;SDS011;5477;48.806;9.154;2023-07-24T12:17:55;7.73;;;5.90;;
10847;SDS011;5477;48.806;9.154;2023-07-24T12:20:23;9.23;;;6.30;;
10847;SDS011;5477;48.806;9.154;2023-07-24T12:22:51;8.83;;;6.20;;
10847;SDS011;5477;48.806;9.154;2023-07-24T12:25:20;8.33;;;6.00;;
10847;SDS011;5477;48.806;9.154;2023-07-24T12:27:48;11.73;;;6.03;;
10847;SDS011;5477;48.806;9.154;2023-07-24T12:30:16;10.70;;;6.80;;
10847;SDS011;5477;48.806;9.154;2023-07-24T12:32:45;9.37;;;6.07;;
10847;SDS011;5477;48.806;9.154;2023-07-24T12:35:14;7.80;;;5.70;;
10847;SDS011;5477;48.806;9.154;2023-07-24T12:37:43;8.43;;;5.87;;
10847;SDS011;5477;48.806;9.154;2023-07-24T12:40:12;10.07;;;5.87;;
10847;SDS011;5477;48.806;9.154;2023-07-24T12:42:40;5.97;;;5.20;;
10847;SDS011;5477;48.806;9.154;2023-07-24T12:45:08;7.90;;;6.13;;
10847;SDS011;5477;48.806;9.154;2023-07-24T12:47:36;7.70;;;5.50;;
10847;SDS011;5477;48.806;9.154;2023-07-24T12:50:05;8.43;;;5.97;;
10847;SDS011;5477;48.806;9.154;2023-07-24T12:52:35;7.43;;;5.67;;
10847;SDS011;5477;48.806;9.154;2023-07-24T12:55:03;8.43;;;5.63;;
10847;SDS011;5477;48.806;9.154;2023-07-24T12:57:32;7.40;;;5.60;;
10847;SDS011;5477;48.806;9.154;2023-07-24T13:00:00;8.27;;;6.07;;
10847;SDS011;5477;48.806;9.154;2023-07-24T13:02:28;7.77;;;5.87;;
10847;SDS011;5477;48.806;9.154;2023-07-24T13:04:56;8.27;;;5.73;;
10847;SDS011;5477;48.806;9.154;2023-07-24T13:07:24;8.63;;;6.30;;
10847;SDS011;5477;48.806;9.154;2023-07-24T13:09:53;7.50;;;5.60;;
10847;SDS011;5477;48.806;9.154;2023-07-24T13:12:21;7.67;;;5.67;;
10847;SDS011;5477;48.806;9.154;2023-07-24T13:14:49;8.17;;;5.60;;
10847;SDS011;5477;48.806;9.154;2023-07-24T13:17:17;6.83;;;5.67;;
10847;SDS011;5477;48.806;9.154;2023-07-24T13:19:45;7.07;;;5.80;;
10847;SDS011;5477;48.806;9.154;2023-07-24T13:22:13;7.90;;;5.97;;
10847;SDS011;5477;48.806;9.154;2023-07-24T13:24:41;7.07;;;5.57;;
10847;SDS011;5477;48.806;9.154;2023-07-24T13:27:11;7.77;;;5.63;;
10847;SDS011;5477;48.806;9.154;2023-07-24T13:29:39;6.47;;;5.30;;
10847;SDS011;5477;48.806;9.154;2023-07-24T13:32:07;9.03;;;5.73;;
10847;SDS011;5477;48.806;9.154;2023-07-24T13:34:37;7.07;;;5.30;;
10847;SDS011;5477;48.806;9.154;2023-07-24T13:37:05;8.53;;;4.90;;
10847;SDS011;5477;48.806;9.154;2023-07-24T13:39:33;6.23;;;5.17;;
10847;SDS011;5477;48.806;9.154;2023-07-24T13:42:02;5.77;;;4.90;;
10847;SDS011;5477;48.806;9.154;2023-07-24T13:44:31;6.20;;;5.20;;
10847;SDS011;5477;48.806;9.154;2023-07-24T13:46:59;7.57;;;5.07;;
10847;SDS011;5477;48.806;9.154;2023-07-24T13:49:27;6.80;;;5.37;;
10847;SDS011;5477;48.806;9.154;2023-07-24T13:51:55;5.90;;;4.83;;
10847;SDS011;5477;48.806;9.154;2023-07-24T13:54:23;5.50;;;4.90;;
10847;SDS011;5477;48.806;9.154;2023-07-24T13:56:51;7.20;;;4.57;;
10847;SDS011;5477;48.806;9.154;2023-07-24T13:59:19;6.20;;;5.00;;
10847;SDS011;5477;48.806;9.154;2023-07-24T14:01:48;5.97;;;4.47;;
10847;SDS011;5477;48.806;9.154;2023-07-24T14:04:16;5.32;;;4.68;;
10847;SDS011;5477;48.806;9.154;2023-07-24T14:06:44;5.10;;;4.50;;
10847;SDS011;5477;48.806;9.154;2023-07-24T14:09:13;4.73;;;4.23;;
10847;SDS011;5477;48.806;9.154;2023-07-24T14:11:41;4.93;;;4.40;;
10847;SDS011;5477;48.806;9.154;2023-07-24T14:14:08;5.97;;;4.37;;
10847;SDS011;5477;48.806;9.154;2023-07-24T14:16:37;6.17;;;4.43;;
10847;SDS011;5477;48.806;9.154;2023-07-24T14:19:09;4.93;;;4.18;;
10847;SDS011;5477;48.806;9.154;2023-07-24T14:21:37;5.05;;;3.83;;
10847;SDS011;5477;48.806;9.154;2023-07-24T14:24:05;4.47;;;4.07;;
10847;SDS011;5477;48.806;9.154;2023-07-24T14:26:33;5.53;;;3.73;;
10847;SDS011;5477;48.806;9.154;2023-07-24T14:29:03;4.43;;;3.93;;
10847;SDS011;5477;48.806;9.154;2023-07-24T14:31:31;5.20;;;4.00;;
10847;SDS011;5477;48.806;9.154;2023-07-24T14:34:00;4.83;;;4.20;;
10847;SDS011;5477;48.806;9.154;2023-07-24T14:36:29;5.00;;;3.90;;
10847;SDS011;5477;48.806;9.154;2023-07-24T14:39:00;4.17;;;3.63;;
10847;SDS011;5477;48.806;9.154;2023-07-24T14:41:28;4.40;;;4.00;;
10847;SDS011;5477;48.806;9.154;2023-07-24T14:43:57;4.50;;;4.00;;
10847;SDS011;5477;48.806;9.154;2023-07-24T14:46:25;4.27;;;3.73;;
10847;SDS011;5477;48.806;9.154;2023-07-24T14:48:53;4.90;;;3.97;;
10847;SDS011;5477;48.806;9.154;2023-07-24T14:51:22;5.63;;;4.10;;
10847;SDS011;5477;48.806;9.154;2023-07-24T14:53:52;5.23;;;4.33;;
10847;SDS011;5477;48.806;9.154;2023-07-24T14:56:20;5.47;;;4.30;;
10847;SDS011;5477;48.806;9.154;2023-07-24T14:58:48;4.20;;;3.80;;
10847;SDS011;5477;48.806;9.154;2023-07-24T15:01:16;4.90;;;3.80;;
10847;SDS011;5477;48.806;9.154;2023-07-24T15:03:45;5.23;;;3.90;;
10847;SDS011;5477;48.806;9.154;2023-07-24T15:06:13;5.57;;;3.97;;